Main page
METAR-TAF:

METAR-TAF

Airports :

Sulaimaniyah International Airport

Sulaymaniyah, Iraq

latitude: 35-33-39N, longitude: 45-18-52E, elevation: 760 m

Current weather observation

The report was made 24 minutes ago, at 01:00 UTC
Wind 10 kt from the East
Temperature 14°C
Humidity 26%
Pressure 1022 hPa
Visibility 10 km or more
no clouds below 1500 m and no cumulonimbus

METAR: ORSU 150100Z 10010KT CAVOK 14/M05 Q1022

Time: 04:24 (01:24 UTC)

Forecast

The report was made 1 hour and 54 minutes ago, at 23:30 UTC
Forecast valid from 15 at 00 UTC to 15 at 24 UTC
Wind 10 kt from the Northeast
Visibility 10 km or more
no clouds below 1500 m and no cumulonimbus
Becoming
from 15 at 22 UTC to 15 at 24 UTC
Wind 15 kt from the Northeast

TAF: ORSU 142330Z 1500/1524 05010KT CAVOK BECMG 1522/1524 05015KT

Weather observations and forecasts of more than 4000 airports (METAR and TAF reports).

The available stations are represented by yellow and red dots on the map.

Hover mouse over dot to see the name of the station.

Then click to see weather observations and forecasts.

To change the map : click on the green buttons with a black cross to zoom in, on the green button with a dash to zoom out, or on the green arrows for adjacent maps.


METAR-TAF: